STN weather

London Stansted Airport
London, England, United Kingdom

Public forecast

Using degrees Celsius for public forecast. Weather courtesy of forecast.io.

METAR (pilot weather report)

Retrieved 2017/05/28 23:20 UTC (34 minutes ago):

EGSS 282320Z AUTO 07008KT 9999 OVC034 16/15 Q1015

TAF (pilot weather forecast)

Retrieved 2017/05/28 18:15 UTC (6 hours ago):

TAF EGSS 281658Z 2818/2924 10006KT 9999 FEW045 PROB30 TEMPO 2818/2821 7000 SHRA PROB30 TEMPO 2822/2905 VRB15G25KT 3000 +TSRA PROB30 TEMPO 2905/2911 BKN009 BECMG 2907/2910 16010KT BECMG 2910/2912 22010KT PROB40 TEMPO 2910/2921 7000 SHRA BKN014